createdAt,value
2019-03-19T00:00:04.430Z,36.90
2019-03-19T00:01:05.932Z,37.23
2019-03-19T00:02:04.452Z,37.02
2019-03-19T00:03:04.399Z,37.13
2019-03-19T00:04:04.382Z,37.13
2019-03-19T00:05:04.452Z,36.80
2019-03-19T00:06:04.370Z,36.69
2019-03-19T00:07:04.352Z,36.82
2019-03-19T00:08:04.351Z,36.82
2019-03-19T00:09:04.331Z,36.61
2019-03-19T00:10:04.320Z,37.13
2019-03-19T00:11:04.396Z,36.82
2019-03-19T00:12:04.291Z,37.13
2019-03-19T00:13:04.290Z,37.02
2019-03-19T00:14:04.301Z,37.34
2019-03-19T00:15:04.319Z,37.13
2019-03-19T00:16:04.300Z,36.71
2019-03-19T00:17:04.309Z,36.71
2019-03-19T00:18:04.236Z,36.92
2019-03-19T00:19:04.220Z,37.02
2019-03-19T00:20:04.232Z,37.13
2019-03-19T00:21:04.192Z,37.11
2019-03-19T00:22:04.185Z,36.80
2019-03-19T00:23:04.342Z,36.82
2019-03-19T00:24:04.190Z,36.69
2019-03-19T00:25:04.150Z,36.80
2019-03-19T00:26:04.180Z,37.02
2019-03-19T00:27:04.130Z,36.82
2019-03-19T00:28:04.209Z,36.59
2019-03-19T00:29:04.241Z,37.13
2019-03-19T00:30:04.122Z,37.13
2019-03-19T00:31:04.861Z,36.61
2019-03-19T00:32:04.063Z,37.02
2019-03-19T00:33:04.064Z,37.13
2019-03-19T00:34:04.061Z,37.13
2019-03-19T00:35:04.111Z,37.02
2019-03-19T00:36:04.039Z,37.02
2019-03-19T00:37:04.063Z,36.92
2019-03-19T00:38:04.071Z,36.92
2019-03-19T00:39:04.010Z,37.02
2019-03-19T00:40:04.003Z,36.61
2019-03-19T00:41:04.962Z,37.13
2019-03-19T00:42:04.000Z,36.82
2019-03-19T00:43:03.950Z,36.51
2019-03-19T00:44:03.940Z,36.71
2019-03-19T00:45:03.931Z,37.02
2019-03-19T00:46:03.960Z,37.13
2019-03-19T00:47:04.000Z,37.02
2019-03-19T00:48:03.930Z,37.13
2019-03-19T00:49:03.880Z,37.13
2019-03-19T00:50:03.912Z,36.61
2019-03-19T00:51:05.698Z,36.71
2019-03-19T00:52:03.960Z,37.13
2019-03-19T00:53:03.890Z,37.02
2019-03-19T00:54:03.829Z,37.13
2019-03-19T00:55:03.803Z,36.71
2019-03-19T00:56:03.792Z,36.61
2019-03-19T00:57:03.790Z,36.61
2019-03-19T00:58:03.779Z,36.82
2019-03-19T00:59:03.840Z,36.61
2019-03-19T01:00:03.754Z,36.61
2019-03-19T01:01:04.435Z,36.71
2019-03-19T01:02:03.780Z,36.51
2019-03-19T01:03:03.771Z,37.13
2019-03-19T01:04:03.732Z,37.13
2019-03-19T01:05:03.781Z,37.13
2019-03-19T01:06:03.749Z,37.02
2019-03-19T01:07:03.720Z,36.71
2019-03-19T01:08:03.691Z,37.23
2019-03-19T01:09:03.701Z,37.02
2019-03-19T01:10:03.670Z,37.23
2019-03-19T01:11:04.615Z,37.02
2019-03-19T01:12:03.669Z,36.82
2019-03-19T01:13:03.619Z,37.02
2019-03-19T01:14:03.653Z,36.92
2019-03-19T01:15:03.592Z,37.02
2019-03-19T01:16:03.595Z,37.44
2019-03-19T01:17:03.702Z,37.13
2019-03-19T01:18:03.600Z,37.23
2019-03-19T01:19:03.553Z,37.13
2019-03-19T01:20:03.541Z,37.54
2019-03-19T01:21:05.203Z,37.13
2019-03-19T01:22:03.596Z,37.23
2019-03-19T01:23:03.583Z,36.82
2019-03-19T01:24:03.495Z,36.82
2019-03-19T01:25:03.493Z,36.51
2019-03-19T01:26:03.479Z,37.13
2019-03-19T01:27:03.460Z,37.13
2019-03-19T01:28:03.453Z,37.34
2019-03-19T01:29:03.549Z,36.92
2019-03-19T01:30:03.432Z,36.82
2019-03-19T01:31:04.802Z,37.13
2019-03-19T01:32:03.414Z,37.13
2019-03-19T01:33:03.441Z,37.13
2019-03-19T01:34:03.419Z,37.13
2019-03-19T01:35:03.440Z,36.82
2019-03-19T01:36:03.361Z,37.23
2019-03-19T01:37:03.369Z,36.82
2019-03-19T01:38:03.343Z,36.82
2019-03-19T01:39:03.439Z,37.13
2019-03-19T01:40:03.351Z,36.71
2019-03-19T01:41:03.390Z,36.92
2019-03-19T01:42:03.304Z,37.02
2019-03-19T01:43:03.289Z,37.13
2019-03-19T01:44:03.429Z,36.71
2019-03-19T01:45:03.266Z,36.71
2019-03-19T01:46:03.283Z,37.23
2019-03-19T01:47:03.371Z,37.13
2019-03-19T01:48:03.212Z,37.13
2019-03-19T01:49:03.219Z,37.02
2019-03-19T01:50:03.200Z,37.23
2019-03-19T01:51:03.952Z,37.13
2019-03-19T01:52:03.202Z,37.23
2019-03-19T01:53:03.229Z,36.92
2019-03-19T01:54:03.162Z,36.40
2019-03-19T01:55:03.180Z,37.54
2019-03-19T01:56:05.488Z,36.82
2019-03-19T01:57:03.119Z,37.13
2019-03-19T01:58:03.169Z,37.44
2019-03-19T01:59:03.201Z,37.23
2019-03-19T02:00:03.090Z,37.13
2019-03-19T02:01:04.769Z,37.23
2019-03-19T02:02:03.111Z,37.23
2019-03-19T02:03:03.182Z,36.61
2019-03-19T02:04:03.050Z,36.82
2019-03-19T02:05:03.171Z,36.51
2019-03-19T02:06:03.096Z,37.02
2019-03-19T02:07:03.021Z,37.13
2019-03-19T02:08:03.021Z,36.82
2019-03-19T02:09:03.030Z,37.23
2019-03-19T02:10:02.990Z,37.13
2019-03-19T02:11:03.069Z,37.13
2019-03-19T02:12:03.011Z,36.71
2019-03-19T02:13:02.943Z,37.13
2019-03-19T02:14:02.975Z,37.23
2019-03-19T02:15:02.919Z,36.19
2019-03-19T02:16:03.050Z,37.23
2019-03-19T02:17:03.000Z,37.54
2019-03-19T02:18:02.902Z,37.34
2019-03-19T02:19:02.881Z,37.23
2019-03-19T02:20:02.864Z,37.02
2019-03-19T02:21:02.864Z,37.23
2019-03-19T02:22:02.851Z,37.13
2019-03-19T02:23:04.687Z,37.02
2019-03-19T02:24:02.871Z,37.23
2019-03-19T02:25:02.930Z,37.44
2019-03-19T02:26:02.951Z,37.13
2019-03-19T02:27:02.795Z,37.02
2019-03-19T02:28:02.820Z,37.23
2019-03-19T02:29:02.899Z,37.23
2019-03-19T02:30:02.761Z,37.34
2019-03-19T02:31:03.496Z,36.61
2019-03-19T02:32:02.852Z,36.71
2019-03-19T02:33:02.722Z,37.23
2019-03-19T02:34:02.730Z,37.02
2019-03-19T02:35:02.798Z,36.82
2019-03-19T02:36:02.745Z,37.34
2019-03-19T02:37:02.682Z,37.23
2019-03-19T02:38:02.671Z,37.23
2019-03-19T02:39:02.685Z,37.23
2019-03-19T02:40:02.651Z,37.02
2019-03-19T02:41:02.729Z,37.13
2019-03-19T02:42:02.631Z,37.02
2019-03-19T02:43:02.630Z,37.13
2019-03-19T02:44:02.600Z,36.61
2019-03-19T02:45:02.591Z,36.82
2019-03-19T02:46:02.613Z,36.82
2019-03-19T02:47:02.693Z,37.44
2019-03-19T02:48:02.561Z,37.34
2019-03-19T02:49:02.552Z,37.13
2019-03-19T02:50:02.558Z,37.02
2019-03-19T02:51:02.574Z,37.54
2019-03-19T02:52:02.545Z,36.82
2019-03-19T02:53:02.842Z,37.25
2019-03-19T02:54:02.491Z,37.02
2019-03-19T02:55:02.481Z,36.83
2019-03-19T02:56:02.472Z,37.44
2019-03-19T02:57:02.459Z,36.82
2019-03-19T02:58:02.551Z,36.71
2019-03-19T02:59:02.514Z,37.35
2019-03-19T03:00:02.452Z,37.02
2019-03-19T03:01:02.469Z,36.82
2019-03-19T03:02:02.391Z,37.44
2019-03-19T03:03:02.434Z,36.82
2019-03-19T03:04:02.393Z,36.82
2019-03-19T03:05:02.492Z,36.82
2019-03-19T03:06:02.376Z,37.13
2019-03-19T03:07:02.401Z,37.15
2019-03-19T03:08:02.340Z,37.15
2019-03-19T03:09:02.325Z,37.35
2019-03-19T03:10:02.336Z,36.61
2019-03-19T03:11:02.371Z,36.94
2019-03-19T03:12:02.289Z,37.23
2019-03-19T03:13:02.281Z,36.61
2019-03-19T03:14:02.333Z,37.04
2019-03-19T03:15:02.251Z,37.02
2019-03-19T03:16:02.255Z,36.63
2019-03-19T03:17:02.383Z,37.02
2019-03-19T03:18:02.319Z,36.63
2019-03-19T03:19:02.221Z,37.04
2019-03-19T03:20:02.401Z,36.73
2019-03-19T03:21:02.230Z,37.15
2019-03-19T03:22:02.190Z,36.52
2019-03-19T03:23:02.270Z,36.83
2019-03-19T03:24:02.175Z,36.83
2019-03-19T03:25:02.150Z,37.15
2019-03-19T03:26:02.164Z,36.63
2019-03-19T03:27:02.645Z,36.73
2019-03-19T03:28:02.114Z,36.73
2019-03-19T03:29:02.183Z,37.04
2019-03-19T03:30:02.269Z,36.73
2019-03-19T03:31:02.217Z,37.25
2019-03-19T03:32:02.071Z,37.15
2019-03-19T03:33:02.054Z,36.73
2019-03-19T03:34:02.052Z,36.63
2019-03-19T03:35:02.195Z,36.83
2019-03-19T03:36:02.055Z,36.73
2019-03-19T03:37:02.091Z,36.42
2019-03-19T03:38:02.024Z,37.35
2019-03-19T03:39:02.001Z,36.63
2019-03-19T03:40:01.993Z,36.63
2019-03-19T03:41:02.060Z,36.83
2019-03-19T03:42:01.952Z,36.94
2019-03-19T03:43:01.952Z,36.83
2019-03-19T03:44:01.991Z,36.83
2019-03-19T03:45:01.933Z,36.63
2019-03-19T03:46:01.959Z,37.04
2019-03-19T03:47:02.032Z,37.15
2019-03-19T03:48:01.906Z,37.25
2019-03-19T03:49:01.875Z,37.25
2019-03-19T03:50:01.870Z,37.35
2019-03-19T03:51:01.860Z,37.15
2019-03-19T03:52:01.841Z,36.83
2019-03-19T03:53:01.916Z,36.63
2019-03-19T03:54:01.855Z,36.63
2019-03-19T03:55:01.850Z,37.55
2019-03-19T03:56:01.802Z,36.83
2019-03-19T03:57:02.969Z,36.63
2019-03-19T03:58:01.774Z,36.83
2019-03-19T03:59:01.840Z,36.73
2019-03-19T04:00:01.810Z,36.73
2019-03-19T04:01:01.761Z,37.15
2019-03-19T04:02:01.755Z,36.94
2019-03-19T04:03:01.732Z,37.35
2019-03-19T04:04:01.772Z,37.04
2019-03-19T04:05:01.885Z,37.04
2019-03-19T04:06:01.720Z,37.25
2019-03-19T04:07:01.681Z,37.35
2019-03-19T04:08:01.671Z,37.35
2019-03-19T04:09:01.659Z,37.25
2019-03-19T04:10:01.751Z,37.06
2019-03-19T04:11:01.711Z,37.25
2019-03-19T04:12:01.665Z,37.25
2019-03-19T04:13:01.630Z,37.06
2019-03-19T04:14:01.681Z,36.73
2019-03-19T04:15:01.908Z,37.15
2019-03-19T04:16:01.614Z,37.25
2019-03-19T04:17:01.657Z,37.15
2019-03-19T04:18:01.562Z,37.15
2019-03-19T04:19:01.564Z,37.15
2019-03-19T04:20:01.549Z,36.73
2019-03-19T04:21:01.563Z,36.73
2019-03-19T04:22:01.523Z,36.85
2019-03-19T04:23:03.294Z,36.73
2019-03-19T04:24:01.530Z,37.15
2019-03-19T04:25:01.492Z,37.25
2019-03-19T04:26:01.470Z,36.73
2019-03-19T04:27:14.857Z,36.75
2019-03-19T04:28:02.451Z,36.42
2019-03-19T04:29:01.552Z,37.26
2019-03-19T04:30:01.434Z,37.15
2019-03-19T04:31:01.420Z,37.04
2019-03-19T04:32:01.412Z,37.66
2019-03-19T04:33:01.450Z,36.42
2019-03-19T04:34:01.380Z,37.04
2019-03-19T04:35:01.462Z,36.94
2019-03-19T04:36:01.410Z,37.35
2019-03-19T04:37:01.370Z,37.15
2019-03-19T04:38:01.340Z,36.73
2019-03-19T04:39:01.331Z,37.16
2019-03-19T04:40:01.323Z,36.83
2019-03-19T04:41:01.370Z,36.83
2019-03-19T04:42:01.291Z,37.15
2019-03-19T04:43:01.360Z,37.25
2019-03-19T04:44:01.330Z,37.15
2019-03-19T04:45:01.270Z,36.73
2019-03-19T04:46:01.332Z,36.73
2019-03-19T04:47:01.310Z,37.06
2019-03-19T04:48:03.513Z,37.04
2019-03-19T04:49:01.221Z,36.83
2019-03-19T04:50:01.210Z,37.55
2019-03-19T04:51:01.201Z,37.15
2019-03-19T04:52:01.180Z,37.15
2019-03-19T04:53:01.290Z,36.73
2019-03-19T04:54:01.160Z,37.04
2019-03-19T04:55:01.180Z,37.25
2019-03-19T04:56:01.160Z,37.15
2019-03-19T04:57:01.200Z,37.15
2019-03-19T04:58:01.112Z,36.83
2019-03-19T04:59:01.181Z,36.83
2019-03-19T05:00:01.100Z,36.83
2019-03-19T05:01:01.080Z,36.63
2019-03-19T05:02:01.103Z,36.63
2019-03-19T05:03:01.067Z,36.63
2019-03-19T05:04:01.050Z,36.63
2019-03-19T05:05:01.223Z,37.25
2019-03-19T05:06:01.023Z,37.25
2019-03-19T05:07:01.052Z,37.25
2019-03-19T05:08:01.001Z,37.35
2019-03-19T05:09:01.041Z,37.15
2019-03-19T05:10:00.993Z,37.15
2019-03-19T05:11:01.038Z,37.35
2019-03-19T05:12:01.010Z,36.73
2019-03-19T05:13:00.985Z,36.83
2019-03-19T05:14:00.940Z,37.25
2019-03-19T05:15:00.930Z,37.06
2019-03-19T05:16:00.923Z,37.66
2019-03-19T05:17:00.980Z,36.52
2019-03-19T05:18:00.890Z,36.73
2019-03-19T05:19:00.899Z,37.25
2019-03-19T05:20:00.885Z,36.52
2019-03-19T05:21:00.872Z,37.16
2019-03-19T05:22:00.861Z,36.75
2019-03-19T05:23:00.940Z,36.73
2019-03-19T05:24:00.860Z,36.63
2019-03-19T05:25:00.870Z,36.83
2019-03-19T05:26:00.853Z,36.83
2019-03-19T05:27:00.801Z,36.83
2019-03-19T05:28:00.859Z,36.63
2019-03-19T05:29:00.860Z,37.66
2019-03-19T05:30:00.839Z,36.83
2019-03-19T05:31:00.752Z,36.52
2019-03-19T05:32:00.741Z,36.83
2019-03-19T05:33:00.731Z,37.04
2019-03-19T05:34:00.730Z,37.15
2019-03-19T05:35:00.785Z,36.73
2019-03-19T05:36:00.701Z,36.85
2019-03-19T05:37:00.744Z,36.73
2019-03-19T05:38:00.670Z,36.73
2019-03-19T05:39:00.660Z,37.15
2019-03-19T05:40:00.799Z,36.63
2019-03-19T05:41:00.769Z,36.73
2019-03-19T05:42:00.630Z,36.65
2019-03-19T05:43:00.621Z,36.83
2019-03-19T05:44:00.629Z,37.04
2019-03-19T05:45:00.601Z,36.85
2019-03-19T05:46:00.580Z,36.63
2019-03-19T05:47:00.661Z,36.83
2019-03-19T05:48:00.572Z,37.16
2019-03-19T05:49:00.542Z,36.73
2019-03-19T05:50:00.550Z,36.75
2019-03-19T05:51:00.579Z,36.63
2019-03-19T05:52:00.520Z,37.16
2019-03-19T05:53:00.581Z,37.15
2019-03-19T05:54:00.512Z,37.35
2019-03-19T05:55:00.482Z,37.15
2019-03-19T05:56:00.513Z,36.83
2019-03-19T05:57:00.479Z,36.42
2019-03-19T05:58:00.450Z,37.35
2019-03-19T05:59:00.550Z,37.15
2019-03-19T06:00:00.440Z,37.15
2019-03-19T06:01:00.440Z,36.83
2019-03-19T06:02:00.402Z,36.63
2019-03-19T06:03:00.410Z,36.83
2019-03-19T06:04:00.411Z,37.15
2019-03-19T06:05:00.450Z,37.15
2019-03-19T06:06:00.399Z,36.63
2019-03-19T06:07:00.377Z,36.63
2019-03-19T06:08:00.381Z,37.04
2019-03-19T06:09:00.329Z,37.25
2019-03-19T06:10:00.347Z,37.15
2019-03-19T06:11:00.509Z,37.04
2019-03-19T06:12:00.290Z,37.04
2019-03-19T06:13:00.292Z,37.15
2019-03-19T06:14:00.270Z,37.15
2019-03-19T06:15:00.328Z,36.52
2019-03-19T06:16:00.270Z,37.15
2019-03-19T06:17:00.370Z,37.15
2019-03-19T06:18:00.232Z,37.04
2019-03-19T06:19:00.222Z,37.04
2019-03-19T06:20:00.210Z,37.04
2019-03-19T06:21:00.201Z,37.25
2019-03-19T06:22:00.230Z,37.15
2019-03-19T06:23:00.300Z,37.04
2019-03-19T06:24:00.160Z,36.83
2019-03-19T06:25:00.217Z,37.04
2019-03-19T06:26:00.182Z,37.15
2019-03-19T06:27:00.129Z,37.35
2019-03-19T06:28:00.960Z,37.04
2019-03-19T06:29:00.250Z,37.25
2019-03-19T06:30:00.114Z,37.04
2019-03-19T06:31:00.090Z,37.15
2019-03-19T06:32:00.070Z,37.15
2019-03-19T06:33:00.080Z,37.04
2019-03-19T06:34:00.050Z,36.83
2019-03-19T06:35:00.323Z,37.25
2019-03-19T06:36:00.142Z,37.35
2019-03-19T06:37:00.089Z,36.83
2019-03-19T06:38:00.071Z,36.63
2019-03-19T06:39:00.041Z,36.63
2019-03-19T06:40:00.052Z,37.04
2019-03-19T06:41:00.061Z,37.25
2019-03-19T06:41:59.969Z,37.15
2019-03-19T06:42:59.990Z,36.73
2019-03-19T06:43:59.931Z,36.52
2019-03-19T06:44:59.961Z,37.15
2019-03-19T06:45:59.919Z,37.35
2019-03-19T06:47:00.018Z,37.15
2019-03-19T06:47:59.939Z,36.63
2019-03-19T06:48:59.932Z,36.63
2019-03-19T06:49:59.872Z,37.04
2019-03-19T06:50:59.859Z,37.15
2019-03-19T06:51:59.850Z,36.83
2019-03-19T06:52:59.910Z,36.92
2019-03-19T06:53:59.841Z,37.46
2019-03-19T06:54:59.830Z,37.15
2019-03-19T06:55:59.809Z,37.15
2019-03-19T06:56:59.803Z,37.44
2019-03-19T06:58:10.308Z,36.94
2019-03-19T06:59:00.861Z,37.46
2019-03-19T06:59:59.761Z,37.23
2019-03-19T07:00:59.754Z,37.44
2019-03-19T07:01:59.779Z,37.46
2019-03-19T07:02:59.772Z,37.13
2019-03-19T07:03:59.730Z,36.94
2019-03-19T07:04:59.779Z,37.44
2019-03-19T07:05:59.710Z,37.13
2019-03-19T07:06:59.709Z,37.13
2019-03-19T07:07:59.669Z,36.51
2019-03-19T07:08:59.741Z,36.61
2019-03-19T07:09:59.649Z,37.13
2019-03-19T07:10:59.719Z,36.71
2019-03-19T07:12:01.548Z,36.61
2019-03-19T07:12:59.619Z,36.61
2019-03-19T07:13:59.650Z,36.51
2019-03-19T07:14:59.609Z,36.71
2019-03-19T07:15:59.580Z,36.61
2019-03-19T07:16:59.731Z,36.51
2019-03-19T07:17:59.602Z,36.51
2019-03-19T07:18:59.560Z,36.61
2019-03-19T07:19:59.533Z,36.30
2019-03-19T07:20:59.535Z,36.51
2019-03-19T07:21:59.551Z,36.51
2019-03-19T07:22:59.643Z,36.82
2019-03-19T07:23:59.493Z,36.71
2019-03-19T07:24:59.546Z,36.71
2019-03-19T07:25:59.460Z,36.40
2019-03-19T07:26:59.469Z,36.30
2019-03-19T07:27:59.450Z,37.02
2019-03-19T07:28:59.540Z,37.02
2019-03-19T07:29:59.432Z,36.92
2019-03-19T07:30:59.450Z,36.40
2019-03-19T07:31:59.400Z,36.49
2019-03-19T07:32:59.480Z,36.80
2019-03-19T07:33:59.451Z,36.40
2019-03-19T07:34:59.452Z,36.82
2019-03-19T07:35:59.369Z,36.40
2019-03-19T07:36:59.350Z,36.69
2019-03-19T07:37:59.330Z,36.40
2019-03-19T07:38:59.330Z,36.39
2019-03-19T07:39:59.322Z,36.29
2019-03-19T07:40:59.420Z,35.78
2019-03-19T07:41:59.321Z,36.08
2019-03-19T07:42:59.330Z,36.18
2019-03-19T07:43:59.281Z,36.82
2019-03-19T07:44:59.259Z,36.08
2019-03-19T07:45:59.250Z,36.59
2019-03-19T07:46:59.390Z,36.59
2019-03-19T07:47:59.232Z,36.08
2019-03-19T07:48:59.210Z,36.59
2019-03-19T07:49:59.211Z,36.49
2019-03-19T07:50:59.202Z,36.39
2019-03-19T07:51:59.202Z,35.77
2019-03-19T07:52:59.253Z,36.29
2019-03-19T07:53:59.250Z,36.18
2019-03-19T07:54:59.200Z,36.18
2019-03-19T07:55:59.151Z,36.59
2019-03-19T07:56:59.150Z,35.77
2019-03-19T07:57:59.120Z,35.46
2019-03-19T07:58:59.170Z,35.35
2019-03-19T07:59:59.242Z,36.39
2019-03-19T08:00:59.133Z,36.29
2019-03-19T08:01:59.070Z,35.87
2019-03-19T08:02:59.070Z,35.77
2019-03-19T08:03:59.049Z,35.85
2019-03-19T08:04:59.121Z,35.85
2019-03-19T08:05:59.069Z,35.77
2019-03-19T08:06:59.015Z,35.77
2019-03-19T08:07:59.010Z,35.33
2019-03-19T08:08:59.002Z,35.35
2019-03-19T08:09:59.082Z,35.44
2019-03-19T08:10:59.090Z,35.44
2019-03-19T08:11:58.960Z,35.54
2019-03-19T08:12:58.990Z,35.85
2019-03-19T08:13:59.002Z,35.24
2019-03-19T08:14:58.929Z,35.54
2019-03-19T08:15:58.919Z,35.24
2019-03-19T08:16:59.024Z,35.64
2019-03-19T08:17:58.900Z,35.64
2019-03-19T08:18:58.879Z,35.85
2019-03-19T08:19:58.871Z,35.54
2019-03-19T08:20:58.892Z,35.24
2019-03-19T08:21:58.850Z,35.75
2019-03-19T08:22:59.021Z,35.73
2019-03-19T08:23:58.910Z,35.85
2019-03-19T08:24:58.859Z,35.94
2019-03-19T08:25:58.820Z,35.22
2019-03-19T08:26:58.842Z,35.32
2019-03-19T08:27:58.790Z,34.29
2019-03-19T08:28:58.849Z,34.70
2019-03-19T08:29:58.761Z,35.42
2019-03-19T08:30:58.774Z,34.70
2019-03-19T08:31:58.829Z,34.49
2019-03-19T08:32:58.738Z,34.80
2019-03-19T08:33:58.720Z,34.70
2019-03-19T08:34:58.780Z,34.49
2019-03-19T08:36:08.746Z,34.70
2019-03-19T08:36:59.740Z,35.01
2019-03-19T08:37:58.680Z,35.22
2019-03-19T08:38:58.660Z,35.20
2019-03-19T08:39:58.660Z,34.69
2019-03-19T08:40:58.809Z,34.89
2019-03-19T08:41:58.710Z,34.79
2019-03-19T08:42:58.620Z,34.38
2019-03-19T08:43:58.652Z,34.69
2019-03-19T08:44:58.604Z,34.89
2019-03-19T08:45:58.610Z,34.58
2019-03-19T08:46:58.649Z,34.38
2019-03-19T08:47:58.559Z,34.48
2019-03-19T08:48:58.551Z,34.06
2019-03-19T08:49:58.580Z,33.65
2019-03-19T08:50:58.532Z,34.58
2019-03-19T08:51:58.581Z,33.65
2019-03-19T08:52:58.589Z,34.27
2019-03-19T08:53:58.511Z,33.96
2019-03-19T08:54:58.501Z,34.17
2019-03-19T08:55:58.480Z,33.96
2019-03-19T08:56:58.491Z,34.38
2019-03-19T08:57:58.451Z,33.95
2019-03-19T08:59:05.866Z,34.05
2019-03-19T08:59:59.520Z,34.15
2019-03-19T09:00:58.452Z,33.74
2019-03-19T09:01:58.421Z,33.84
2019-03-19T09:02:58.432Z,33.74
2019-03-19T09:03:58.432Z,33.43
2019-03-19T09:04:58.461Z,34.03
2019-03-19T09:05:58.412Z,33.84
2019-03-19T09:06:58.381Z,34.14
2019-03-19T09:07:58.341Z,34.05
2019-03-19T09:08:58.333Z,34.03
2019-03-19T09:09:58.360Z,33.72
2019-03-19T09:10:58.430Z,34.03
2019-03-19T09:11:58.349Z,32.57
2019-03-19T09:12:58.286Z,32.68
2019-03-19T09:13:58.321Z,32.78
2019-03-19T09:14:58.267Z,32.89
2019-03-19T09:15:58.242Z,33.40
2019-03-19T09:16:58.341Z,33.09
2019-03-19T09:17:58.227Z,33.09
2019-03-19T09:18:58.217Z,32.35
2019-03-19T09:19:58.219Z,33.09
2019-03-19T09:20:58.220Z,33.09
2019-03-19T09:21:58.187Z,32.97
2019-03-19T09:22:58.278Z,33.28
2019-03-19T09:23:58.238Z,32.97
2019-03-19T09:24:58.159Z,32.16
2019-03-19T09:25:58.177Z,32.16
2019-03-19T09:26:58.127Z,32.46
2019-03-19T09:27:58.157Z,32.46
2019-03-19T09:28:58.190Z,32.97
2019-03-19T09:29:58.097Z,32.66
2019-03-19T09:30:58.080Z,32.35
2019-03-19T09:31:58.071Z,32.23
2019-03-19T09:32:58.059Z,32.44
2019-03-19T09:33:58.097Z,32.75
2019-03-19T09:34:58.127Z,32.34
2019-03-19T09:35:58.089Z,31.72
2019-03-19T09:36:58.052Z,31.41
2019-03-19T09:37:59.158Z,32.65
2019-03-19T09:38:57.994Z,32.34
2019-03-19T09:39:58.398Z,32.34
2019-03-19T09:40:58.028Z,32.23
2019-03-19T09:41:58.007Z,32.44
2019-03-19T09:42:57.956Z,31.93
2019-03-19T09:43:57.958Z,31.71
2019-03-19T09:44:58.811Z,31.91
2019-03-19T09:45:57.949Z,31.60
2019-03-19T09:46:58.048Z,31.60
2019-03-19T09:47:57.897Z,31.40
2019-03-19T09:48:57.967Z,31.91
2019-03-19T09:49:57.949Z,31.60
2019-03-19T09:50:57.975Z,31.40
2019-03-19T09:51:57.896Z,31.60
2019-03-19T09:52:57.917Z,31.60
2019-03-19T09:53:57.977Z,31.60
2019-03-19T09:54:57.817Z,31.59
2019-03-19T09:55:57.800Z,31.40
2019-03-19T09:56:57.807Z,31.60
2019-03-19T09:57:57.808Z,31.40
2019-03-19T09:58:57.856Z,31.29
2019-03-19T09:59:57.807Z,31.60
2019-03-19T10:00:57.766Z,31.59
2019-03-19T10:01:57.787Z,31.59
2019-03-19T10:02:57.728Z,31.60
2019-03-19T10:03:57.728Z,31.91
2019-03-19T10:04:57.779Z,31.59
2019-03-19T10:05:57.699Z,31.71
2019-03-19T10:07:05.670Z,31.38
2019-03-19T10:07:58.700Z,31.38
2019-03-19T10:08:57.667Z,31.69
2019-03-19T10:09:57.708Z,31.59
2019-03-19T10:10:57.711Z,31.59
2019-03-19T10:11:57.645Z,31.69
2019-03-19T10:12:57.617Z,31.90
2019-03-19T10:13:57.607Z,31.59
2019-03-19T10:14:57.680Z,31.57
2019-03-19T10:15:57.587Z,32.20
2019-03-19T10:16:57.629Z,31.88
2019-03-19T10:17:57.579Z,31.88
2019-03-19T10:18:57.587Z,31.88
2019-03-19T10:19:57.558Z,31.47
2019-03-19T10:20:57.527Z,31.47
2019-03-19T10:21:57.559Z,31.59
2019-03-19T10:22:57.634Z,31.78
2019-03-19T10:23:57.499Z,31.47
2019-03-19T10:24:57.479Z,31.47
2019-03-19T10:25:57.479Z,31.78
2019-03-19T10:26:57.459Z,31.88
2019-03-19T10:27:57.456Z,32.10
2019-03-19T10:28:57.567Z,32.10
2019-03-19T10:29:57.449Z,31.59
2019-03-19T10:30:57.418Z,31.47
2019-03-19T10:31:57.399Z,31.57
2019-03-19T10:32:57.407Z,31.48
2019-03-19T10:33:57.449Z,31.37
2019-03-19T10:34:57.468Z,31.37
2019-03-19T10:35:57.367Z,31.88
2019-03-19T10:36:57.357Z,31.88
2019-03-19T10:37:57.351Z,31.78
2019-03-19T10:38:57.348Z,31.88
2019-03-19T10:39:57.437Z,31.88
2019-03-19T10:40:57.426Z,31.88
2019-03-19T10:41:57.278Z,31.88
2019-03-19T10:42:57.447Z,31.88
2019-03-19T10:43:57.300Z,31.78
2019-03-19T10:44:57.318Z,31.66
2019-03-19T10:45:57.249Z,32.07
2019-03-19T10:46:57.312Z,31.97
2019-03-19T10:47:57.227Z,31.87
2019-03-19T10:48:57.209Z,31.98
2019-03-19T10:49:57.237Z,31.56
2019-03-19T10:50:57.179Z,31.25
2019-03-19T10:51:57.199Z,31.97
2019-03-19T10:52:57.259Z,32.07
2019-03-19T10:53:57.216Z,31.25
2019-03-19T10:54:57.217Z,31.46
2019-03-19T10:55:57.139Z,31.25
2019-03-19T10:56:57.117Z,31.25
2019-03-19T10:57:57.129Z,31.56
2019-03-19T10:58:57.198Z,31.35
2019-03-19T10:59:57.129Z,31.46
2019-03-19T11:00:57.086Z,31.35
2019-03-19T11:01:57.217Z,31.46
2019-03-19T11:02:57.267Z,31.56
2019-03-19T11:03:57.078Z,30.82
2019-03-19T11:04:57.130Z,30.52
2019-03-19T11:05:57.038Z,30.53
2019-03-19T11:06:57.018Z,30.52
2019-03-19T11:07:57.008Z,30.94
2019-03-19T11:08:57.057Z,30.53
2019-03-19T11:09:56.996Z,30.84
2019-03-19T11:10:57.058Z,31.15
2019-03-19T11:11:56.967Z,30.52
2019-03-19T11:12:57.027Z,30.52
2019-03-19T11:13:56.937Z,30.52
2019-03-19T11:14:56.919Z,30.93
2019-03-19T11:15:56.947Z,30.72
2019-03-19T11:16:57.299Z,30.52
2019-03-19T11:17:56.946Z,30.72
2019-03-19T11:18:56.879Z,30.52
2019-03-19T11:19:56.877Z,30.93
2019-03-19T11:20:56.868Z,31.13
2019-03-19T11:21:56.936Z,30.72
2019-03-19T11:22:56.969Z,30.93
2019-03-19T11:23:56.907Z,30.72
2019-03-19T11:24:56.816Z,31.13
2019-03-19T11:25:56.838Z,31.13
2019-03-19T11:26:56.778Z,30.72
2019-03-19T11:27:56.860Z,31.13
2019-03-19T11:28:56.887Z,30.72
2019-03-19T11:30:00.019Z,31.13
2019-03-19T11:30:56.749Z,30.62
2019-03-19T11:31:56.727Z,31.24
2019-03-19T11:32:56.728Z,30.72
2019-03-19T11:33:56.767Z,31.13
2019-03-19T11:34:56.777Z,31.03
2019-03-19T11:35:56.696Z,30.62
2019-03-19T11:36:57.989Z,30.93
2019-03-19T11:37:56.715Z,30.52
2019-03-19T11:38:56.656Z,30.62
2019-03-19T11:39:56.646Z,31.32
2019-03-19T11:40:56.718Z,31.34
2019-03-19T11:41:56.629Z,30.60
2019-03-19T11:42:56.668Z,31.75
2019-03-19T11:43:56.637Z,31.54
2019-03-19T11:44:56.590Z,31.65
2019-03-19T11:45:56.619Z,30.93
2019-03-19T11:46:56.637Z,30.91
2019-03-19T11:47:56.567Z,30.91
2019-03-19T11:48:56.538Z,30.71
2019-03-19T11:49:56.539Z,30.81
2019-03-19T11:50:56.527Z,30.41
2019-03-19T11:51:56.519Z,31.34
2019-03-19T11:52:56.571Z,30.40
2019-03-19T11:53:56.480Z,30.91
2019-03-19T11:54:56.486Z,30.91
2019-03-19T11:55:56.476Z,31.53
2019-03-19T11:56:56.458Z,31.02
2019-03-19T11:57:57.682Z,30.91
2019-03-19T11:58:56.539Z,31.22
2019-03-19T11:59:56.420Z,31.12
2019-03-19T12:00:56.408Z,30.91
2019-03-19T12:01:56.396Z,30.91
2019-03-19T12:02:56.408Z,31.22
2019-03-19T12:03:56.388Z,30.71
2019-03-19T12:04:56.498Z,31.03
2019-03-19T12:05:56.389Z,31.32
2019-03-19T12:06:56.348Z,31.43
2019-03-19T12:07:56.337Z,30.91
2019-03-19T12:08:56.409Z,30.91
2019-03-19T12:09:56.321Z,31.12
2019-03-19T12:10:56.387Z,31.53
2019-03-19T12:11:56.337Z,31.22
2019-03-19T12:12:56.287Z,31.22
2019-03-19T12:13:56.259Z,30.93
2019-03-19T12:14:56.289Z,31.43
2019-03-19T12:15:56.247Z,30.71
2019-03-19T12:16:56.288Z,31.02
2019-03-19T12:17:56.248Z,30.40
2019-03-19T12:18:56.217Z,31.12
2019-03-19T12:19:56.248Z,30.91
2019-03-19T12:20:56.230Z,31.22
2019-03-19T12:21:56.237Z,30.71
2019-03-19T12:22:56.257Z,30.91
2019-03-19T12:23:56.186Z,30.91
2019-03-19T12:24:56.145Z,30.91
2019-03-19T12:25:56.139Z,30.93
2019-03-19T12:26:56.126Z,31.22
2019-03-19T12:27:56.118Z,31.12
2019-03-19T12:28:56.227Z,30.81
2019-03-19T12:29:56.096Z,30.71
2019-03-19T12:30:56.087Z,30.91
2019-03-19T12:31:56.117Z,30.71
2019-03-19T12:32:56.074Z,30.71
2019-03-19T12:33:56.047Z,30.50
2019-03-19T12:34:56.098Z,30.59
2019-03-19T12:35:57.782Z,30.38
2019-03-19T12:37:00.041Z,30.49
2019-03-19T12:38:01.159Z,30.60
2019-03-19T12:39:02.062Z,30.59
2019-03-19T12:40:01.573Z,30.49
2019-03-19T12:40:56.641Z,30.59
2019-03-19T12:41:55.988Z,30.38
2019-03-19T12:42:56.680Z,30.28
2019-03-19T12:44:00.479Z,30.59
2019-03-19T12:44:59.680Z,30.90
2019-03-19T12:45:57.930Z,30.38
2019-03-19T12:47:00.581Z,30.80
2019-03-19T12:47:57.800Z,30.38
2019-03-19T12:48:55.871Z,30.80
2019-03-19T12:49:55.894Z,30.49
2019-03-19T12:50:58.510Z,30.38
2019-03-19T12:51:58.559Z,30.49